sensor_id;sensor_type;location;lat;lon;timestamp;pressure;altitude;pressure_sealevel;temperature;humidity
41945;BME280;63122;52.424;13.458;2023-02-12T00:01:48;102723.13;;;6.32;100.00
41945;BME280;63122;52.424;13.458;2023-02-12T00:03:43;102724.19;;;6.28;100.00
41945;BME280;63122;52.424;13.458;2023-02-12T00:05:59;102720.34;;;6.35;100.00
41945;BME280;63122;52.424;13.458;2023-02-12T00:07:57;102720.28;;;6.37;100.00
41945;BME280;63122;52.424;13.458;2023-02-12T00:09:52;102725.69;;;6.33;100.00
41945;BME280;63122;52.424;13.458;2023-02-12T00:11:50;102725.84;;;6.30;100.00
41945;BME280;63122;52.424;13.458;2023-02-12T00:13:56;102725.69;;;6.33;100.00
41945;BME280;63122;52.424;13.458;2023-02-12T00:15:51;102733.59;;;6.32;100.00
41945;BME280;63122;52.424;13.458;2023-02-12T00:17:52;102741.81;;;6.24;100.00
41945;BME280;63122;52.424;13.458;2023-02-12T00:19:54;102742.47;;;6.29;100.00
41945;BME280;63122;52.424;13.458;2023-02-12T00:21:55;102739.91;;;6.28;100.00
41945;BME280;63122;52.424;13.458;2023-02-12T00:23:53;102748.72;;;6.27;100.00
41945;BME280;63122;52.424;13.458;2023-02-12T00:28:16;102747.06;;;6.24;100.00
41945;BME280;63122;52.424;13.458;2023-02-12T00:30:14;102748.00;;;6.23;100.00
41945;BME280;63122;52.424;13.458;2023-02-12T00:32:09;102748.84;;;6.24;100.00
41945;BME280;63122;52.424;13.458;2023-02-12T00:34:09;102748.72;;;6.27;100.00
41945;BME280;63122;52.424;13.458;2023-02-12T00:36:13;102744.81;;;6.36;100.00
41945;BME280;63122;52.424;13.458;2023-02-12T00:38:13;102754.78;;;6.27;100.00
41945;BME280;63122;52.424;13.458;2023-02-12T00:40:11;102748.00;;;6.23;100.00
41945;BME280;63122;52.424;13.458;2023-02-12T00:42:07;102747.66;;;6.12;100.00
41945;BME280;63122;52.424;13.458;2023-02-12T00:44:02;102755.44;;;6.13;100.00
41945;BME280;63122;52.424;13.458;2023-02-12T00:45:57;102749.22;;;6.16;100.00
41945;BME280;63122;52.424;13.458;2023-02-12T00:47:53;102750.34;;;6.10;100.00
41945;BME280;63122;52.424;13.458;2023-02-12T00:49:50;102742.56;;;6.09;100.00
41945;BME280;63122;52.424;13.458;2023-02-12T00:51:46;102747.81;;;6.09;100.00
41945;BME280;63122;52.424;13.458;2023-02-12T00:54:12;102749.78;;;6.03;100.00
41945;BME280;63122;52.424;13.458;2023-02-12T00:56:14;102758.63;;;6.01;100.00
41945;BME280;63122;52.424;13.458;2023-02-12T00:58:14;102761.88;;;6.06;100.00
41945;BME280;63122;52.424;13.458;2023-02-12T01:00:19;102768.03;;;6.05;100.00
41945;BME280;63122;52.424;13.458;2023-02-12T01:02:16;102766.06;;;6.10;100.00
41945;BME280;63122;52.424;13.458;2023-02-12T01:04:12;102774.59;;;6.15;100.00
41945;BME280;63122;52.424;13.458;2023-02-12T01:06:11;102780.59;;;6.17;100.00
41945;BME280;63122;52.424;13.458;2023-02-12T01:08:16;102781.16;;;6.24;100.00
41945;BME280;63122;52.424;13.458;2023-02-12T01:10:16;102786.19;;;6.29;100.00
41945;BME280;63122;52.424;13.458;2023-02-12T01:12:19;102781.50;;;6.36;100.00
41945;BME280;63122;52.424;13.458;2023-02-12T01:14:19;102793.56;;;6.40;100.00
41945;BME280;63122;52.424;13.458;2023-02-12T01:16:20;102791.56;;;6.45;100.00
41945;BME280;63122;52.424;13.458;2023-02-12T01:18:24;102789.72;;;6.47;100.00
41945;BME280;63122;52.424;13.458;2023-02-12T01:20:29;102787.94;;;6.47;100.00
41945;BME280;63122;52.424;13.458;2023-02-12T01:22:43;102790.72;;;6.44;100.00
41945;BME280;63122;52.424;13.458;2023-02-12T01:24:40;102789.94;;;6.42;100.00
41945;BME280;63122;52.424;13.458;2023-02-12T01:26:41;102790.00;;;6.41;100.00
41945;BME280;63122;52.424;13.458;2023-02-12T01:28:41;102797.56;;;6.47;100.00
41945;BME280;63122;52.424;13.458;2023-02-12T01:30:40;102791.75;;;6.40;100.00
41945;BME280;63122;52.424;13.458;2023-02-12T01:32:38;102786.66;;;6.37;100.00
41945;BME280;63122;52.424;13.458;2023-02-12T01:34:40;102797.31;;;6.34;100.00
41945;BME280;63122;52.424;13.458;2023-02-12T01:36:36;102793.41;;;6.43;100.00
41945;BME280;63122;52.424;13.458;2023-02-12T01:38:34;102791.22;;;6.33;100.00
41945;BME280;63122;52.424;13.458;2023-02-12T01:40:29;102793.56;;;6.40;100.00
41945;BME280;63122;52.424;13.458;2023-02-12T01:42:26;102792.63;;;6.41;100.00
41945;BME280;63122;52.424;13.458;2023-02-12T01:44:27;102791.13;;;6.35;100.00
41945;BME280;63122;52.424;13.458;2023-02-12T01:46:27;102793.56;;;6.40;100.00
41945;BME280;63122;52.424;13.458;2023-02-12T01:48:24;102804.03;;;6.40;100.00
41945;BME280;63122;52.424;13.458;2023-02-12T01:50:21;102802.00;;;6.46;100.00
41945;BME280;63122;52.424;13.458;2023-02-12T01:52:20;102801.91;;;6.48;100.00
41945;BME280;63122;52.424;13.458;2023-02-12T01:54:25;102804.59;;;6.46;100.00
41945;BME280;63122;52.424;13.458;2023-02-12T01:56:32;102803.16;;;6.39;100.00
41945;BME280;63122;52.424;13.458;2023-02-12T01:58:36;102808.94;;;6.28;100.00
41945;BME280;63122;52.424;13.458;2023-02-12T02:00:33;102804.47;;;6.30;100.00
41945;BME280;63122;52.424;13.458;2023-02-12T02:02:30;102806.72;;;6.38;100.00
41945;BME280;63122;52.424;13.458;2023-02-12T02:04:31;102800.91;;;6.51;100.00
41945;BME280;63122;52.424;13.458;2023-02-12T02:06:34;102804.53;;;6.48;100.00
41945;BME280;63122;52.424;13.458;2023-02-12T02:08:31;102811.03;;;6.39;100.00
41945;BME280;63122;52.424;13.458;2023-02-12T02:10:31;102808.13;;;6.26;100.00
41945;BME280;63122;52.424;13.458;2023-02-12T02:12:26;102812.59;;;6.24;100.00
41945;BME280;63122;52.424;13.458;2023-02-12T02:14:34;102808.13;;;6.26;100.00
41945;BME280;63122;52.424;13.458;2023-02-12T02:16:29;102810.75;;;6.26;100.00
41945;BME280;63122;52.424;13.458;2023-02-12T02:18:35;102813.53;;;6.23;100.00
41945;BME280;63122;52.424;13.458;2023-02-12T02:21:02;102820.47;;;6.24;100.00
41945;BME280;63122;52.424;13.458;2023-02-12T02:23:10;102815.16;;;6.26;100.00
41945;BME280;63122;52.424;13.458;2023-02-12T02:25:44;102808.13;;;6.26;100.00
41945;BME280;63122;52.424;13.458;2023-02-12T02:27:55;102812.44;;;6.27;100.00
41945;BME280;63122;52.424;13.458;2023-02-12T02:32:29;102816.88;;;6.27;100.00
41945;BME280;63122;52.424;13.458;2023-02-12T02:34:35;102809.13;;;6.24;100.00
41945;BME280;63122;52.424;13.458;2023-02-12T02:36:36;102817.16;;;6.21;100.00
41945;BME280;63122;52.424;13.458;2023-02-12T02:38:54;102810.13;;;6.21;100.00
41945;BME280;63122;52.424;13.458;2023-02-12T02:40:56;102808.38;;;6.22;100.00
41945;BME280;63122;52.424;13.458;2023-02-12T02:42:59;102811.47;;;6.11;100.00
41945;BME280;63122;52.424;13.458;2023-02-12T02:45:01;102813.59;;;6.22;100.00
41945;BME280;63122;52.424;13.458;2023-02-12T02:47:00;102809.13;;;6.24;100.00
41945;BME280;63122;52.424;13.458;2023-02-12T02:49:02;102808.56;;;6.17;100.00
41945;BME280;63122;52.424;13.458;2023-02-12T02:51:06;102814.38;;;6.24;100.00
41945;BME280;63122;52.424;13.458;2023-02-12T02:53:06;102814.38;;;6.24;100.00
41945;BME280;63122;52.424;13.458;2023-02-12T02:55:06;102823.47;;;6.16;100.00
41945;BME280;63122;52.424;13.458;2023-02-12T02:57:05;102816.78;;;6.09;100.00
41945;BME280;63122;52.424;13.458;2023-02-12T02:59:04;102819.63;;;6.24;100.00
41945;BME280;63122;52.424;13.458;2023-02-12T03:01:05;102818.91;;;6.20;100.00
41945;BME280;63122;52.424;13.458;2023-02-12T03:03:06;102823.16;;;6.23;100.00
41945;BME280;63122;52.424;13.458;2023-02-12T03:05:09;102826.91;;;6.17;100.00
41945;BME280;63122;52.424;13.458;2023-02-12T03:07:10;102827.41;;;6.25;100.00
41945;BME280;63122;52.424;13.458;2023-02-12T03:09:12;102828.28;;;6.26;100.00
41945;BME280;63122;52.424;13.458;2023-02-12T03:11:12;102842.09;;;6.29;100.00
41945;BME280;63122;52.424;13.458;2023-02-12T03:13:13;102843.72;;;6.32;100.00
41945;BME280;63122;52.424;13.458;2023-02-12T03:15:13;102843.91;;;6.27;100.00
41945;BME280;63122;52.424;13.458;2023-02-12T03:17:14;102851.13;;;6.22;100.00
41945;BME280;63122;52.424;13.458;2023-02-12T03:19:13;102855.47;;;6.23;100.00
41945;BME280;63122;52.424;13.458;2023-02-12T03:21:18;102852.47;;;6.12;100.00
41945;BME280;63122;52.424;13.458;2023-02-12T03:23:20;102854.75;;;6.19;100.00
41945;BME280;63122;52.424;13.458;2023-02-12T03:25:20;102854.97;;;6.15;100.00
41945;BME280;63122;52.424;13.458;2023-02-12T03:27:18;102855.69;;;6.18;100.00
41945;BME280;63122;52.424;13.458;2023-02-12T03:29:14;102850.50;;;6.17;100.00
41945;BME280;63122;52.424;13.458;2023-02-12T03:31:14;102847.81;;;6.18;100.00
41945;BME280;63122;52.424;13.458;2023-02-12T03:33:19;102853.06;;;6.18;100.00
41945;BME280;63122;52.424;13.458;2023-02-12T03:35:20;102858.03;;;6.25;100.00
41945;BME280;63122;52.424;13.458;2023-02-12T03:37:24;102858.03;;;6.25;100.00
41945;BME280;63122;52.424;13.458;2023-02-12T03:39:28;102860.78;;;6.22;100.00
41945;BME280;63122;52.424;13.458;2023-02-12T03:41:27;102859.59;;;6.29;100.00
41945;BME280;63122;52.424;13.458;2023-02-12T03:43:29;102860.78;;;6.22;100.00
41945;BME280;63122;52.424;13.458;2023-02-12T03:45:37;102859.38;;;6.14;100.00
41945;BME280;63122;52.424;13.458;2023-02-12T03:47:40;102864.38;;;6.19;100.00
41945;BME280;63122;52.424;13.458;2023-02-12T03:49:43;102869.47;;;6.22;100.00
41945;BME280;63122;52.424;13.458;2023-02-12T03:51:43;102860.84;;;6.20;100.00
41945;BME280;63122;52.424;13.458;2023-02-12T03:53:41;102867.59;;;6.26;100.00
41945;BME280;63122;52.424;13.458;2023-02-12T03:55:40;102870.34;;;6.23;100.00
41945;BME280;63122;52.424;13.458;2023-02-12T03:57:40;102872.75;;;6.27;100.00
41945;BME280;63122;52.424;13.458;2023-02-12T03:59:38;102871.28;;;6.22;100.00
41945;BME280;63122;52.424;13.458;2023-02-12T04:01:34;102873.81;;;6.23;100.00
41945;BME280;63122;52.424;13.458;2023-02-12T04:03:30;102878.91;;;6.26;100.00
41945;BME280;63122;52.424;13.458;2023-02-12T04:05:26;102882.59;;;6.22;100.00
41945;BME280;63122;52.424;13.458;2023-02-12T04:07:22;102883.75;;;6.36;100.00
41945;BME280;63122;52.424;13.458;2023-02-12T04:09:21;102884.59;;;6.36;100.00
41945;BME280;63122;52.424;13.458;2023-02-12T04:11:24;102882.75;;;6.38;100.00
41945;BME280;63122;52.424;13.458;2023-02-12T04:13:27;102883.81;;;6.34;100.00
41945;BME280;63122;52.424;13.458;2023-02-12T04:15:40;102885.22;;;6.22;100.00
41945;BME280;63122;52.424;13.458;2023-02-12T04:17:48;102884.97;;;6.28;100.00
41945;BME280;63122;52.424;13.458;2023-02-12T04:19:51;102894.63;;;6.26;100.00
41945;BME280;63122;52.424;13.458;2023-02-12T04:21:53;102890.13;;;6.30;100.00
41945;BME280;63122;52.424;13.458;2023-02-12T04:23:59;102889.28;;;6.29;100.00
41945;BME280;63122;52.424;13.458;2023-02-12T04:26:07;102897.97;;;6.30;100.00
41945;BME280;63122;52.424;13.458;2023-02-12T04:28:09;102897.16;;;6.29;100.00
41945;BME280;63122;52.424;13.458;2023-02-12T04:30:13;102898.06;;;6.28;100.00
41945;BME280;63122;52.424;13.458;2023-02-12T04:32:16;102898.84;;;6.30;100.00
41945;BME280;63122;52.424;13.458;2023-02-12T04:34:16;102889.34;;;6.28;100.00
41945;BME280;63122;52.424;13.458;2023-02-12T04:36:15;102892.09;;;6.25;100.00
41945;BME280;63122;52.424;13.458;2023-02-12T04:38:18;102893.06;;;6.22;100.00
41945;BME280;63122;52.424;13.458;2023-02-12T04:40:17;102894.22;;;6.16;100.00
41945;BME280;63122;52.424;13.458;2023-02-12T04:42:16;102892.38;;;6.18;100.00
41945;BME280;63122;52.424;13.458;2023-02-12T04:44:16;102897.22;;;6.07;100.00
41945;BME280;63122;52.424;13.458;2023-02-12T04:46:11;102891.97;;;6.28;100.00
41945;BME280;63122;52.424;13.458;2023-02-12T04:48:06;102895.97;;;6.16;100.00
41945;BME280;63122;52.424;13.458;2023-02-12T04:50:03;102899.25;;;6.21;100.00
41945;BME280;63122;52.424;13.458;2023-02-12T04:51:58;102894.78;;;6.23;100.00
41945;BME280;63122;52.424;13.458;2023-02-12T04:53:53;102902.88;;;6.18;100.00
41945;BME280;63122;52.424;13.458;2023-02-12T04:55:48;102893.53;;;6.11;100.00
41945;BME280;63122;52.424;13.458;2023-02-12T04:57:46;102892.38;;;6.18;100.00
41945;BME280;63122;52.424;13.458;2023-02-12T04:59:42;102891.78;;;6.12;100.00
41945;BME280;63122;52.424;13.458;2023-02-12T05:01:38;102893.44;;;6.14;100.00
41945;BME280;63122;52.424;13.458;2023-02-12T05:03:34;102899.72;;;6.10;100.00
41945;BME280;63122;52.424;13.458;2023-02-12T05:05:29;102897.75;;;6.15;100.00
41945;BME280;63122;52.424;13.458;2023-02-12T05:07:24;102898.41;;;6.21;100.00
41945;BME280;63122;52.424;13.458;2023-02-12T05:09:21;102902.72;;;6.22;100.00
41945;BME280;63122;52.424;13.458;2023-02-12T05:11:16;102906.72;;;6.10;100.00
41945;BME280;63122;52.424;13.458;2023-02-12T05:13:14;102904.16;;;6.08;100.00
41945;BME280;63122;52.424;13.458;2023-02-12T05:15:09;102901.50;;;6.10;100.00
41945;BME280;63122;52.424;13.458;2023-02-12T05:17:06;102906.66;;;6.11;100.00
41945;BME280;63122;52.424;13.458;2023-02-12T05:19:01;102908.25;;;6.15;100.00
41945;BME280;63122;52.424;13.458;2023-02-12T05:20:58;102906.72;;;6.10;100.00
41945;BME280;63122;52.424;13.458;2023-02-12T05:22:53;102903.19;;;6.11;100.00
41945;BME280;63122;52.424;13.458;2023-02-12T05:24:49;102905.09;;;6.07;100.00
41945;BME280;63122;52.424;13.458;2023-02-12T05:26:44;102909.72;;;6.00;100.00
41945;BME280;63122;52.424;13.458;2023-02-12T05:28:42;102907.72;;;6.07;100.00
41945;BME280;63122;52.424;13.458;2023-02-12T05:30:38;102907.66;;;6.09;100.00
41945;BME280;63122;52.424;13.458;2023-02-12T05:32:33;102919.09;;;6.06;100.00
41945;BME280;63122;52.424;13.458;2023-02-12T05:34:28;102919.53;;;5.95;100.00
41945;BME280;63122;52.424;13.458;2023-02-12T05:36:24;102925.69;;;5.94;100.00
41945;BME280;63122;52.424;13.458;2023-02-12T05:38:20;102926.19;;;6.04;100.00
41945;BME280;63122;52.424;13.458;2023-02-12T05:40:15;102926.91;;;6.08;100.00
41945;BME280;63122;52.424;13.458;2023-02-12T05:42:11;102921.72;;;6.06;100.00
41945;BME280;63122;52.424;13.458;2023-02-12T05:44:08;102927.50;;;6.14;100.00
41945;BME280;63122;52.424;13.458;2023-02-12T05:46:07;102929.22;;;6.15;100.00
41945;BME280;63122;52.424;13.458;2023-02-12T05:48:04;102922.50;;;6.08;100.00
41945;BME280;63122;52.424;13.458;2023-02-12T05:50:00;102925.22;;;6.07;100.00
41945;BME280;63122;52.424;13.458;2023-02-12T05:51:55;102938.38;;;6.05;100.00
41945;BME280;63122;52.424;13.458;2023-02-12T05:53:52;102928.63;;;6.09;100.00
41945;BME280;63122;52.424;13.458;2023-02-12T05:55:50;102931.88;;;6.14;100.00
41945;BME280;63122;52.424;13.458;2023-02-12T05:57:46;102921.59;;;6.09;100.00
41945;BME280;63122;52.424;13.458;2023-02-12T05:59:44;102919.75;;;6.11;100.00
41945;BME280;63122;52.424;13.458;2023-02-12T06:01:41;102929.44;;;6.09;100.00
41945;BME280;63122;52.424;13.458;2023-02-12T06:03:37;102929.22;;;6.15;100.00
41945;BME280;63122;52.424;13.458;2023-02-12T06:05:32;102936.25;;;6.13;100.00
41945;BME280;63122;52.424;13.458;2023-02-12T06:07:27;102928.03;;;6.02;100.00
41945;BME280;63122;52.424;13.458;2023-02-12T06:09:23;102934.13;;;6.02;100.00
41945;BME280;63122;52.424;13.458;2023-02-12T06:11:18;102939.03;;;6.10;100.00
41945;BME280;63122;52.424;13.458;2023-02-12T06:13:13;102935.47;;;6.11;100.00
41945;BME280;63122;52.424;13.458;2023-02-12T06:15:11;102934.50;;;6.14;100.00
41945;BME280;63122;52.424;13.458;2023-02-12T06:17:07;102937.13;;;6.14;100.00
41945;BME280;63122;52.424;13.458;2023-02-12T06:19:03;102936.41;;;6.10;100.00
41945;BME280;63122;52.424;13.458;2023-02-12T06:20:58;102942.63;;;6.08;100.00
41945;BME280;63122;52.424;13.458;2023-02-12T06:22:54;102941.00;;;6.05;100.00
41945;BME280;63122;52.424;13.458;2023-02-12T06:24:49;102954.09;;;6.05;100.00
41945;BME280;63122;52.424;13.458;2023-02-12T06:26:44;102957.63;;;6.04;100.00
41945;BME280;63122;52.424;13.458;2023-02-12T06:28:42;102960.38;;;6.01;100.00
41945;BME280;63122;52.424;13.458;2023-02-12T06:30:37;102958.63;;;6.01;100.00
41945;BME280;63122;52.424;13.458;2023-02-12T06:32:33;102967.38;;;6.00;100.00
41945;BME280;63122;52.424;13.458;2023-02-12T06:34:28;102969.19;;;5.98;100.00
41945;BME280;63122;52.424;13.458;2023-02-12T06:36:24;102972.13;;;6.13;100.00
41945;BME280;63122;52.424;13.458;2023-02-12T06:38:19;102973.03;;;6.12;100.00
41945;BME280;63122;52.424;13.458;2023-02-12T06:40:14;102975.97;;;6.04;100.00
41945;BME280;63122;52.424;13.458;2023-02-12T06:42:10;102983.97;;;6.01;100.00
41945;BME280;63122;52.424;13.458;2023-02-12T06:44:05;102974.22;;;6.04;100.00
41945;BME280;63122;52.424;13.458;2023-02-12T06:46:04;102975.56;;;5.93;100.00
41945;BME280;63122;52.424;13.458;2023-02-12T06:47:59;102973.63;;;5.96;100.00
41945;BME280;63122;52.424;13.458;2023-02-12T06:49:54;102972.94;;;5.93;100.00
41945;BME280;63122;52.424;13.458;2023-02-12T06:51:52;102982.50;;;5.94;100.00
41945;BME280;63122;52.424;13.458;2023-02-12T06:53:47;102993.09;;;5.90;100.00
41945;BME280;63122;52.424;13.458;2023-02-12T06:55:42;102997.47;;;5.90;100.00
41945;BME280;63122;52.424;13.458;2023-02-12T06:57:38;102997.44;;;5.91;100.00
41945;BME280;63122;52.424;13.458;2023-02-12T06:59:33;102999.25;;;5.89;100.00
41945;BME280;63122;52.424;13.458;2023-02-12T07:01:32;103007.00;;;5.93;100.00
41945;BME280;63122;52.424;13.458;2023-02-12T07:03:27;103008.41;;;6.01;100.00
41945;BME280;63122;52.424;13.458;2023-02-12T07:05:22;103015.91;;;5.88;100.00
41945;BME280;63122;52.424;13.458;2023-02-12T07:07:18;103008.81;;;5.90;100.00
41945;BME280;63122;52.424;13.458;2023-02-12T07:09:13;103013.06;;;5.93;100.00
41945;BME280;63122;52.424;13.458;2023-02-12T07:11:08;103007.41;;;6.04;100.00
41945;BME280;63122;52.424;13.458;2023-02-12T07:13:04;103009.06;;;6.07;100.00
41945;BME280;63122;52.424;13.458;2023-02-12T07:14:59;103008.34;;;6.03;100.00
41945;BME280;63122;52.424;13.458;2023-02-12T07:16:57;103022.41;;;6.00;100.00
41945;BME280;63122;52.424;13.458;2023-02-12T07:18:54;103009.91;;;6.07;100.00
41945;BME280;63122;52.424;13.458;2023-02-12T07:20:49;103017.84;;;6.05;100.00
41945;BME280;63122;52.424;13.458;2023-02-12T07:22:44;103019.75;;;6.02;100.00
41945;BME280;63122;52.424;13.458;2023-02-12T07:24:40;103019.56;;;6.07;100.00
41945;BME280;63122;52.424;13.458;2023-02-12T07:26:35;103021.53;;;6.01;100.00
41945;BME280;63122;52.424;13.458;2023-02-12T07:28:31;103021.38;;;6.04;100.00
41945;BME280;63122;52.424;13.458;2023-02-12T07:30:26;103027.47;;;6.05;100.00
41945;BME280;63122;52.424;13.458;2023-02-12T07:32:24;103028.13;;;6.10;100.00
41945;BME280;63122;52.424;13.458;2023-02-12T07:34:19;103028.69;;;6.18;100.00
41945;BME280;63122;52.424;13.458;2023-02-12T07:36:16;103023.31;;;6.22;100.00
41945;BME280;63122;52.424;13.458;2023-02-12T07:38:12;103029.38;;;6.22;100.00
41945;BME280;63122;52.424;13.458;2023-02-12T07:40:08;103027.09;;;6.14;100.00
41945;BME280;63122;52.424;13.458;2023-02-12T07:42:04;103032.72;;;6.05;100.00
41945;BME280;63122;52.424;13.458;2023-02-12T07:44:01;103023.75;;;6.11;100.00
41945;BME280;63122;52.424;13.458;2023-02-12T07:46:05;103033.22;;;6.13;100.00
41945;BME280;63122;52.424;13.458;2023-02-12T07:48:03;103033.31;;;6.12;100.00
41945;BME280;63122;52.424;13.458;2023-02-12T07:49:58;103039.72;;;6.04;100.00
41945;BME280;63122;52.424;13.458;2023-02-12T07:51:53;103037.78;;;6.10;100.00
41945;BME280;63122;52.424;13.458;2023-02-12T07:53:49;103039.47;;;6.11;100.00
41945;BME280;63122;52.424;13.458;2023-02-12T07:55:45;103039.28;;;6.15;100.00
41945;BME280;63122;52.424;13.458;2023-02-12T07:57:40;103044.63;;;6.12;100.00
41945;BME280;63122;52.424;13.458;2023-02-12T07:59:36;103050.22;;;6.04;100.00
41945;BME280;63122;52.424;13.458;2023-02-12T08:01:32;103055.91;;;5.92;100.00
41945;BME280;63122;52.424;13.458;2023-02-12T08:03:30;103055.66;;;5.98;100.00
41945;BME280;63122;52.424;13.458;2023-02-12T08:05:26;103051.28;;;5.99;100.00
41945;BME280;63122;52.424;13.458;2023-02-12T08:07:22;103049.84;;;5.91;100.00
41945;BME280;63122;52.424;13.458;2023-02-12T08:09:19;103052.19;;;5.98;100.00
41945;BME280;63122;52.424;13.458;2023-02-12T08:11:15;103050.75;;;5.90;100.00
41945;BME280;63122;52.424;13.458;2023-02-12T08:13:11;103056.44;;;6.02;100.00
41945;BME280;63122;52.424;13.458;2023-02-12T08:15:07;103059.97;;;6.01;100.00
41945;BME280;63122;52.424;13.458;2023-02-12T08:17:02;103058.22;;;6.00;100.00
41945;BME280;63122;52.424;13.458;2023-02-12T08:19:00;103057.34;;;6.01;100.00
41945;BME280;63122;52.424;13.458;2023-02-12T08:21:11;103060.25;;;6.15;100.00
41945;BME280;63122;52.424;13.458;2023-02-12T08:23:07;103063.66;;;6.17;100.00
41945;BME280;63122;52.424;13.458;2023-02-12T08:25:02;103056.63;;;6.18;100.00
41945;BME280;63122;52.424;13.458;2023-02-12T08:26:57;103061.41;;;6.08;100.00
41945;BME280;63122;52.424;13.458;2023-02-12T08:28:54;103069.22;;;6.10;100.00
41945;BME280;63122;52.424;13.458;2023-02-12T08:30:50;103077.78;;;6.13;100.00
41945;BME280;63122;52.424;13.458;2023-02-12T08:32:47;103082.94;;;6.16;100.00
41945;BME280;63122;52.424;13.458;2023-02-12T08:34:45;103085.03;;;6.29;100.00
41945;BME280;63122;52.424;13.458;2023-02-12T08:36:40;103076.19;;;6.31;100.00
41945;BME280;63122;52.424;13.458;2023-02-12T08:38:36;103081.56;;;6.28;100.00
41945;BME280;63122;52.424;13.458;2023-02-12T08:40:32;103088.25;;;6.36;100.00
41945;BME280;63122;52.424;13.458;2023-02-12T08:45:00;103087.81;;;6.46;100.00
41945;BME280;63122;52.424;13.458;2023-02-12T08:46:55;103084.31;;;6.46;100.00
41945;BME280;63122;52.424;13.458;2023-02-12T08:48:52;103083.63;;;6.42;100.00
41945;BME280;63122;52.424;13.458;2023-02-12T08:50:50;103090.31;;;6.27;100.00
41945;BME280;63122;52.424;13.458;2023-02-12T08:52:45;103101.16;;;6.19;100.00
41945;BME280;63122;52.424;13.458;2023-02-12T08:54:49;103100.72;;;6.30;100.00
41945;BME280;63122;52.424;13.458;2023-02-12T08:56:57;103105.94;;;6.30;100.00
41945;BME280;63122;52.424;13.458;2023-02-12T08:58:52;103110.06;;;6.36;100.00
41945;BME280;63122;52.424;13.458;2023-02-12T09:00:47;103105.69;;;6.37;100.00
41945;BME280;63122;52.424;13.458;2023-02-12T09:02:42;103100.88;;;6.26;100.00
41945;BME280;63122;52.424;13.458;2023-02-12T09:04:38;103107.44;;;6.36;100.00
41945;BME280;63122;52.424;13.458;2023-02-12T09:06:36;103109.88;;;6.41;100.00
41945;BME280;63122;52.424;13.458;2023-02-12T09:08:33;103107.09;;;6.23;100.00
41945;BME280;63122;52.424;13.458;2023-02-12T09:10:29;103109.34;;;6.32;100.00
41945;BME280;63122;52.424;13.458;2023-02-12T09:12:24;103113.69;;;6.11;100.00
41945;BME280;63122;52.424;13.458;2023-02-12T09:14:19;103118.66;;;5.95;100.00
41945;BME280;63122;52.424;13.458;2023-02-12T09:16:19;103117.63;;;5.99;100.00
41945;BME280;63122;52.424;13.458;2023-02-12T09:18:15;103123.84;;;5.97;100.00
41945;BME280;63122;52.424;13.458;2023-02-12T09:20:11;103134.13;;;6.03;100.00
41945;BME280;63122;52.424;13.458;2023-02-12T09:22:09;103129.53;;;6.08;100.00
41945;BME280;63122;52.424;13.458;2023-02-12T09:24:05;103130.53;;;6.05;100.00
41945;BME280;63122;52.424;13.458;2023-02-12T09:26:03;103125.03;;;6.12;100.00
41945;BME280;63122;52.424;13.458;2023-02-12T09:28:01;103130.81;;;6.20;100.00
41945;BME280;63122;52.424;13.458;2023-02-12T09:29:56;103127.22;;;6.23;100.00
41945;BME280;63122;52.424;13.458;2023-02-12T09:31:51;103134.44;;;6.17;100.00
41945;BME280;63122;52.424;13.458;2023-02-12T09:33:47;103138.56;;;6.23;100.00
41945;BME280;63122;52.424;13.458;2023-02-12T09:35:49;103132.78;;;6.15;100.00
41945;BME280;63122;52.424;13.458;2023-02-12T09:37:49;103140.03;;;6.08;100.00
41945;BME280;63122;52.424;13.458;2023-02-12T09:39:44;103138.03;;;6.15;100.00
41945;BME280;63122;52.424;13.458;2023-02-12T09:42:09;103139.97;;;6.10;100.00
41945;BME280;63122;52.424;13.458;2023-02-12T09:44:16;103141.84;;;6.06;100.00
41945;BME280;63122;52.424;13.458;2023-02-12T09:46:15;103147.09;;;6.06;100.00
41945;BME280;63122;52.424;13.458;2023-02-12T09:48:30;103144.44;;;6.08;100.00
41945;BME280;63122;52.424;13.458;2023-02-12T09:50:36;103140.50;;;6.18;100.00
41945;BME280;63122;52.424;13.458;2023-02-12T09:52:35;103145.59;;;6.23;100.00
41945;BME280;63122;52.424;13.458;2023-02-12T09:54:37;103149.41;;;6.36;100.00
41945;BME280;63122;52.424;13.458;2023-02-12T09:56:34;103144.50;;;6.49;100.00
41945;BME280;63122;52.424;13.458;2023-02-12T09:58:34;103145.56;;;6.66;100.00
41945;BME280;63122;52.424;13.458;2023-02-12T10:00:32;103143.78;;;6.66;100.00
41945;BME280;63122;52.424;13.458;2023-02-12T10:02:29;103149.25;;;6.61;100.00
41945;BME280;63122;52.424;13.458;2023-02-12T10:04:27;103148.00;;;6.50;100.00
41945;BME280;63122;52.424;13.458;2023-02-12T10:06:25;103149.41;;;6.36;100.00
41945;BME280;63122;52.424;13.458;2023-02-12T10:08:43;103148.81;;;6.50;100.00
41945;BME280;63122;52.424;13.458;2023-02-12T10:10:50;103141.88;;;6.49;100.00
41945;BME280;63122;52.424;13.458;2023-02-12T10:12:50;103143.44;;;6.53;100.00
41945;BME280;63122;52.424;13.458;2023-02-12T10:15:05;103141.69;;;6.54;100.00
41945;BME280;63122;52.424;13.458;2023-02-12T10:17:12;103149.44;;;6.57;100.00
41945;BME280;63122;52.424;13.458;2023-02-12T10:19:22;103146.63;;;6.61;100.00
41945;BME280;63122;52.424;13.458;2023-02-12T10:21:32;103144.66;;;6.67;100.00
41945;BME280;63122;52.424;13.458;2023-02-12T10:23:43;103142.56;;;6.75;100.00